Time;durP1;ratioP1;P1;durP2;ratioP2;P2;SDS_P1;SDS_P2;PMS_P1;PMS_P2;Temp;Humidity;BMP_temperature;BMP_pressure;BME280_temperature;BME280_humidity;BME280_pressure;Samples;Min_cycle;Max_cycle;Signal;HPM_P1;HPM_P2
2023/10/20 00:02:03;;;;;;;;;;;;;;;10.35;81.71;96256.29;110297;1241;69226;-60
2023/10/20 00:04:35;;;;;;;7.70;5.30;;;;;;;10.34;83.68;96253.98;110249;1240;68569;-62
2023/10/20 00:07:06;;;;;;;5.40;4.20;;;;;;;10.34;80.44;96250.27;110275;1241;58865;-60
2023/10/20 00:09:38;;;;;;;5.60;4.00;;;;;;;10.38;80.59;96245.05;110277;1241;58871;-60
2023/10/20 00:12:10;;;;;;;5.90;4.40;;;;;;;10.44;79.35;96242.04;110304;1241;69826;-61
2023/10/20 00:14:40;;;;;;;5.90;4.20;;;;;;;10.50;82.06;96237.34;110264;1241;69308;-60
2023/10/20 00:17:11;;;;;;;5.60;4.30;;;;;;;10.52;84.65;96233.70;110337;1241;68551;-60
2023/10/20 00:19:42;;;;;;;5.10;3.90;;;;;;;10.53;81.39;96224.20;110264;1241;58941;-62
2023/10/20 00:22:15;;;;;;;4.80;3.60;;;;;;;10.55;81.36;96224.67;110241;1241;58827;-62
2023/10/20 00:24:47;;;;;;;5.30;4.00;;;;;;;10.59;80.79;96225.89;110262;1241;70601;-59
2023/10/20 00:27:17;;;;;;;5.50;3.70;;;;;;;10.63;82.26;96222.86;110182;1241;69692;-60
2023/10/20 00:29:48;;;;;;;5.90;3.90;;;;;;;10.68;81.81;96219.67;110274;1241;69658;-60
2023/10/20 00:32:19;;;;;;;4.30;3.40;;;;;;;10.76;80.84;96219.84;110166;1240;58920;-60
2023/10/20 00:34:51;;;;;;;4.40;3.40;;;;;;;10.85;80.70;96213.59;110241;1240;58895;-61
2023/10/20 00:37:23;;;;;;;5.10;3.20;;;;;;;10.93;80.79;96209.85;110280;1241;70589;-61
2023/10/20 00:39:57;;;;;;;4.00;3.60;;;;;;;11.02;79.98;96203.63;110202;1241;68501;-60
2023/10/20 00:42:31;;;;;;;4.90;3.30;;;;;;;11.10;78.85;96194.27;110246;1241;69165;-62
2023/10/20 00:45:06;;;;;;;5.10;4.00;;;;;;;11.18;78.28;96183.02;110237;1241;58808;-59
2023/10/20 00:47:40;;;;;;;4.10;3.00;;;;;;;11.28;78.18;96183.95;110249;1240;58927;-62
2023/10/20 00:50:15;;;;;;;5.00;3.70;;;;;;;11.34;78.54;96187.30;110281;1239;70437;-61
2023/10/20 00:52:54;;;;;;;4.70;3.80;;;;;;;11.39;77.71;96181.80;110308;1241;69252;-62
2023/10/20 00:55:38;;;;;;;4.40;3.40;;;;;;;11.41;78.94;96178.11;110195;1241;69264;-61
2023/10/20 00:58:12;;;;;;;4.40;3.50;;;;;;;11.43;79.03;96173.57;110330;1239;58870;-60
2023/10/20 01:01:02;;;;;;;4.00;3.30;;;;;;;11.46;77.98;96161.42;110262;1241;58874;-60
2023/10/20 01:03:40;;;;;;;5.10;3.80;;;;;;;11.48;78.08;96164.66;110238;1242;69897;-61
2023/10/20 01:06:19;;;;;;;4.80;3.60;;;;;;;11.50;77.99;96157.14;110141;1243;69692;-60
2023/10/20 01:08:58;;;;;;;3.90;2.90;;;;;;;11.53;77.87;96152.02;110244;1241;68318;-59
2023/10/20 01:11:29;;;;;;;4.50;3.50;;;;;;;11.57;77.52;96146.95;110319;1241;59335;-61
2023/10/20 01:14:02;;;;;;;3.70;3.10;;;;;;;11.59;77.41;96147.36;110258;1240;58863;-60
2023/10/20 01:16:37;;;;;;;5.20;3.60;;;;;;;11.62;76.76;96144.73;110238;1241;70511;-61
2023/10/20 01:19:10;;;;;;;5.20;3.80;;;;;;;11.62;77.03;96141.73;110265;1246;69174;-60
2023/10/20 01:21:42;;;;;;;5.30;4.00;;;;;;;11.61;77.49;96144.75;110322;1241;69290;-61
2023/10/20 01:24:14;;;;;;;6.60;4.00;;;;;;;11.59;78.35;96142.02;110220;1240;58989;-60
2023/10/20 01:26:46;;;;;;;5.50;3.90;;;;;;;11.57;79.84;96150.23;110182;1242;58941;-61
2023/10/20 01:29:21;;;;;;;5.50;3.80;;;;;;;11.56;79.31;96151.59;110263;1241;68793;-60
2023/10/20 01:31:54;;;;;;;5.20;4.00;;;;;;;11.55;79.13;96148.64;110276;1241;69629;-60
2023/10/20 01:34:24;;;;;;;4.50;3.20;;;;;;;11.56;78.29;96147.71;110223;1241;69410;-59
2023/10/20 01:36:55;;;;;;;4.80;3.70;;;;;;;11.57;78.78;96149.15;110227;1241;58840;-62
2023/10/20 01:39:29;;;;;;;6.50;4.00;;;;;;;11.56;79.75;96149.65;110273;1241;58952;-59
2023/10/20 01:42:01;;;;;;;6.10;4.50;;;;;;;11.51;80.09;96148.20;110319;1241;69863;-62
2023/10/20 01:44:31;;;;;;;5.20;4.20;;;;;;;11.45;79.17;96140.59;110271;1240;68487;-60
2023/10/20 01:47:02;;;;;;;6.00;4.20;;;;;;;11.39;79.32;96141.89;110243;1249;69323;-59
2023/10/20 01:49:37;;;;;;;4.40;3.50;;;;;;;11.33;78.58;96140.52;110224;1240;58957;-62
2023/10/20 01:52:09;;;;;;;6.30;4.20;;;;;;;11.27;78.70;96141.93;110247;1241;58931;-61
2023/10/20 01:54:43;;;;;;;5.70;4.30;;;;;;;11.20;79.27;96137.91;110248;1241;70585;-62
2023/10/20 01:57:14;;;;;;;6.40;4.10;;;;;;;11.11;78.55;96137.66;110264;1241;69343;-62
2023/10/20 01:59:49;;;;;;;5.90;4.30;;;;;;;11.03;77.89;96136.55;110188;1241;69413;-62
2023/10/20 02:02:19;;;;;;;5.90;4.30;;;;;;;10.94;82.21;96136.17;110144;1242;58885;-60
2023/10/20 02:04:49;;;;;;;;;;;;;;;10.86;85.72;96136.59;110269;1241;58832;-59
2023/10/20 02:07:20;;;;;;;7.50;5.10;;;;;;;10.77;83.40;96132.89;110350;1242;69489;-62
2023/10/20 02:09:54;;;;;;;6.10;3.90;;;;;;;10.69;81.58;96133.30;110315;1242;68383;-59
2023/10/20 02:12:27;;;;;;;4.80;3.60;;;;;;;10.64;81.24;96135.71;110131;1243;68387;-60
2023/10/20 02:14:59;;;;;;;5.10;3.80;;;;;;;10.59;82.69;96145.02;110267;1240;58908;-59
2023/10/20 02:17:29;;;;;;;4.70;3.50;;;;;;;10.55;82.46;96143.14;110246;1241;58899;-60
2023/10/20 02:20:05;;;;;;;4.90;3.30;;;;;;;10.52;86.38;96136.63;110195;1240;70585;-59
2023/10/20 02:22:36;;;;;;;4.00;3.10;;;;;;;10.53;83.62;96137.26;110152;1245;68572;-62
2023/10/20 02:25:09;;;;;;;5.10;3.50;;;;;;;10.55;84.23;96141.55;110249;1242;68876;-60
2023/10/20 02:27:44;;;;;;;5.30;3.50;;;;;;;10.59;83.96;96142.09;110309;1240;58874;-60
2023/10/20 02:30:18;;;;;;;4.90;4.00;;;;;;;10.60;86.12;96143.05;110265;1241;58874;-60
2023/10/20 02:32:48;;;;;;;6.30;4.40;;;;;;;10.59;84.42;96137.34;110317;1241;69949;-60
2023/10/20 02:35:18;;;;;;;5.20;3.40;;;;;;;10.59;85.92;96142.80;110259;1241;68252;-60
2023/10/20 02:37:49;;;;;;;4.60;3.80;;;;;;;10.55;91.23;96145.89;110168;1240;69702;-60
2023/10/20 02:40:20;;;;;;;5.20;4.10;;;;;;;10.51;93.53;96144.09;110155;1245;58953;-59
2023/10/20 02:42:53;;;;;;;6.10;4.10;;;;;;;10.42;88.72;96136.66;110237;1241;58890;-60
2023/10/20 02:45:24;;;;;;;6.80;5.10;;;;;;;10.37;91.17;96126.56;110331;1241;70904;-59
2023/10/20 02:47:55;;;;;;;5.40;4.30;;;;;;;10.32;87.83;96123.50;110266;1239;69213;-60
2023/10/20 02:50:26;;;;;;;;;;;;;;;10.30;85.81;96119.36;110298;1242;69310;-60
2023/10/20 02:52:57;;;;;;;5.60;3.50;;;;;;;10.32;84.43;96116.37;110171;1242;58921;-60
2023/10/20 02:55:28;;;;;;;5.90;3.70;;;;;;;10.35;85.04;96117.86;110329;1239;58856;-61
2023/10/20 02:58:01;;;;;;;5.50;4.00;;;;;;;10.36;83.48;96118.06;110272;1241;69647;-61
2023/10/20 03:00:33;;;;;;;5.00;3.90;;;;;;;10.37;84.55;96106.48;110357;1240;69226;-61
2023/10/20 03:03:05;;;;;;;5.50;3.80;;;;;;;10.38;87.11;96111.45;110169;1242;69187;-60
2023/10/20 03:05:37;;;;;;;6.70;4.10;;;;;;;10.37;89.16;96106.31;110243;1241;58939;-60
2023/10/20 03:08:08;;;;;;;5.10;3.80;;;;;;;10.37;90.56;96111.38;110190;1242;58863;-61
2023/10/20 03:10:43;;;;;;;5.30;3.90;;;;;;;10.35;91.78;96111.94;110169;1242;70385;-62
2023/10/20 03:13:13;;;;;;;5.10;4.00;;;;;;;10.33;88.35;96106.52;110224;1241;68642;-60
2023/10/20 03:15:43;;;;;;;5.30;4.10;;;;;;;10.34;87.04;96103.81;110137;1249;69312;-61
2023/10/20 03:18:16;;;;;;;5.50;4.30;;;;;;;10.37;85.31;96093.64;110275;1244;58929;-60
2023/10/20 03:20:52;;;;;;;5.40;4.10;;;;;;;10.41;86.14;96086.82;110273;1241;59273;-60
2023/10/20 03:23:23;;;;;;;5.40;3.80;;;;;;;10.46;85.41;96077.77;110136;1245;70027;-61
2023/10/20 03:25:55;;;;;;;5.10;4.30;;;;;;;10.52;85.87;96077.45;110229;1241;68782;-60
2023/10/20 03:28:26;;;;;;;5.20;4.10;;;;;;;10.53;94.26;96076.06;110224;1241;69294;-59
2023/10/20 03:30:56;;;;;;;5.80;4.20;;;;;;;10.53;91.07;96079.55;110261;1246;59707;-61
2023/10/20 03:33:26;;;;;;;5.20;3.70;;;;;;;10.53;94.64;96082.02;110220;1241;59628;-62
2023/10/20 03:36:04;;;;;;;6.10;4.00;;;;;;;10.52;92.70;96078.63;110129;1240;71776;-60
2023/10/20 03:38:37;;;;;;;5.40;3.80;;;;;;;10.54;90.59;96073.04;110278;1241;69712;-60
2023/10/20 03:41:11;;;;;;;6.70;3.80;;;;;;;10.59;88.99;96073.81;110250;1241;69761;-60
2023/10/20 03:43:41;;;;;;;4.60;3.60;;;;;;;10.65;87.96;96081.08;110224;1241;59702;-60
2023/10/20 03:46:13;;;;;;;4.60;3.50;;;;;;;10.69;90.04;96080.65;110285;1240;59670;-62
2023/10/20 03:48:45;;;;;;;6.30;3.40;;;;;;;10.74;89.44;96071.72;110239;1241;71400;-59
2023/10/20 03:51:16;;;;;;;6.20;4.30;;;;;;;10.77;89.45;96071.45;110248;1241;69811;-62
2023/10/20 03:53:50;;;;;;;5.60;4.40;;;;;;;10.77;88.91;96065.29;110239;1241;69310;-61
2023/10/20 03:56:22;;;;;;;6.30;4.40;;;;;;;10.79;90.03;96066.33;110284;1240;59704;-61
2023/10/20 03:58:53;;;;;;;5.10;4.00;;;;;;;10.80;88.50;96063.23;110231;1241;59692;-60
2023/10/20 04:01:23;;;;;;;4.80;4.00;;;;;;;10.82;91.07;96069.30;110221;1241;71258;-60
2023/10/20 04:03:53;;;;;;;5.90;4.10;;;;;;;10.84;93.51;96079.81;110309;1240;69814;-60
2023/10/20 04:06:24;;;;;;;5.00;3.80;;;;;;;10.86;89.60;96081.31;110246;1241;68133;-61
2023/10/20 04:08:56;;;;;;;4.60;3.30;;;;;;;10.92;90.24;96078.37;110208;1241;59726;-60
2023/10/20 04:11:26;;;;;;;5.30;3.70;;;;;;;10.97;88.00;96070.85;110253;1241;59675;-60
2023/10/20 04:13:56;;;;;;;;;;;;;;;11.01;91.97;96068.11;110251;1241;71647;-60
2023/10/20 04:16:27;;;;;;;;;;;;;;;10.98;92.72;96064.52;110219;1239;67626;-60
2023/10/20 04:18:58;;;;;;;7.70;5.40;;;;;;;10.94;96.60;96069.42;110249;1240;68493;-59
2023/10/20 04:21:29;;;;;;;8.10;5.20;;;;;;;10.89;90.91;96068.34;110190;1239;59815;-59
2023/10/20 04:23:58;;;;;;;7.00;4.40;;;;;;;10.88;90.34;96070.05;110211;1241;59672;-60
2023/10/20 04:26:31;;;;;;;6.50;4.40;;;;;;;10.88;89.79;96074.50;110218;1240;71787;-59
2023/10/20 04:44:32;;;;;;;6.30;3.90;;;;;;;10.83;92.55;96063.36;110577;1241;69795;-60
2023/10/20 04:49:02;;;;;;;7.60;4.00;;;;;;;10.89;90.78;96067.35;110202;1241;59694;-60
2023/10/20 04:54:10;;;;;;;6.80;4.80;;;;;;;10.93;98.43;96080.45;110242;1241;71417;-59
2023/10/20 04:57:17;;;;;;;5.30;4.30;;;;;;;10.93;99.97;96079.33;110266;1244;69087;-64
2023/10/20 04:59:31;;;;;;;5.60;4.70;;;;;;;10.95;96.24;96083.30;110259;1242;69826;-60
2023/10/20 05:02:13;;;;;;;7.40;4.30;;;;;;;11.00;94.51;96093.13;110202;1240;59694;-62
2023/10/20 05:04:46;;;;;;;5.10;4.60;;;;;;;11.05;93.33;96101.20;110220;1242;59676;-61
2023/10/20 05:07:17;;;;;;;6.70;4.60;;;;;;;11.09;92.36;96099.06;110188;1242;71939;-61
2023/10/20 05:09:54;;;;;;;6.30;4.60;;;;;;;11.17;91.49;96097.02;110144;1242;69229;-60
2023/10/20 05:12:24;;;;;;;6.60;5.00;;;;;;;11.26;90.68;96091.84;110173;1242;69838;-61
2023/10/20 05:14:54;;;;;;;6.90;4.80;;;;;;;11.34;91.64;96083.66;110190;1241;59687;-62
2023/10/20 05:17:24;;;;;;;6.60;4.20;;;;;;;11.44;90.95;96083.45;110127;1243;59685;-61
2023/10/20 05:19:54;;;;;;;6.90;5.20;;;;;;;11.51;94.07;96089.36;110184;1241;71925;-61
2023/10/20 05:22:24;;;;;;;6.30;4.60;;;;;;;11.55;95.89;96103.87;110146;1240;69731;-61
2023/10/20 05:24:53;;;;;;;6.10;4.60;;;;;;;11.58;94.30;96109.44;110137;1240;69333;-61
2023/10/20 05:27:25;;;;;;;5.50;4.00;;;;;;;11.65;94.93;96119.04;110146;1243;59773;-61
2023/10/20 05:29:53;;;;;;;6.20;4.90;;;;;;;11.76;93.44;96114.51;110165;1240;59700;-62
2023/10/20 05:32:23;;;;;;;5.30;4.10;;;;;;;11.88;92.39;96109.16;110181;1245;71451;-62
2023/10/20 05:34:54;;;;;;;6.60;4.40;;;;;;;12.02;91.58;96106.02;110165;1242;69086;-62
2023/10/20 05:37:23;;;;;;;5.10;4.20;;;;;;;12.21;91.38;96099.11;110122;1240;69241;-62
2023/10/20 05:39:53;;;;;;;5.80;3.90;;;;;;;12.39;91.43;96103.06;110134;1242;59797;-62
2023/10/20 05:42:24;;;;;;;5.70;4.40;;;;;;;12.54;95.64;96105.52;110189;1240;59705;-63
2023/10/20 05:45:09;;;;;;;9.60;7.10;;;;;;;12.68;93.39;96100.27;110149;1240;71854;-60
2023/10/20 05:47:39;;;;;;;14.30;10.50;;;;;;;12.84;92.62;96091.17;110132;1243;69830;-60
2023/10/20 05:50:11;;;;;;;22.30;15.30;;;;;;;12.99;92.99;96088.31;110105;1242;68918;-60
2023/10/20 05:52:41;;;;;;;27.90;21.00;;;;;;;13.16;91.76;96094.30;110114;1243;59691;-62
2023/10/20 05:55:10;;;;;;;22.30;17.30;;;;;;;13.31;90.72;96088.94;110159;1242;59678;-62
2023/10/20 05:57:40;;;;;;;20.40;15.50;;;;;;;13.42;89.73;96088.11;110155;1242;71964;-60
2023/10/20 06:00:13;;;;;;;13.90;11.50;;;;;;;13.53;89.18;96091.83;110172;1243;69642;-61
2023/10/20 06:02:46;;;;;;;13.60;10.10;;;;;;;13.64;88.81;96082.59;110141;1248;69848;-62
2023/10/20 06:05:16;;;;;;;11.30;9.40;;;;;;;13.72;88.77;96080.63;110125;1246;59732;-59
2023/10/20 06:07:48;;;;;;;9.80;7.90;;;;;;;13.80;88.78;96087.20;110173;1243;59703;-60
2023/10/20 06:10:25;;;;;;;9.70;7.50;;;;;;;13.88;89.13;96096.04;110118;1242;71158;-60
2023/10/20 06:12:55;;;;;;;9.30;7.30;;;;;;;13.92;90.86;96091.06;110122;1242;69236;-60
2023/10/20 06:15:24;;;;;;;8.30;6.20;;;;;;;13.92;89.02;96096.41;110142;1244;69885;-59
2023/10/20 06:17:54;;;;;;;6.10;5.00;;;;;;;13.94;87.91;96095.13;110135;1240;59709;-60
2023/10/20 06:20:23;;;;;;;5.20;4.50;;;;;;;14.01;86.85;96097.91;110177;1243;59668;-59
2023/10/20 06:22:52;;;;;;;5.20;3.70;;;;;;;14.11;86.47;96095.48;110110;1243;71799;-59
2023/10/20 06:25:22;;;;;;;6.10;3.70;;;;;;;14.24;86.07;96092.77;110180;1243;70221;-61
2023/10/20 06:27:51;;;;;;;9.10;6.30;;;;;;;14.36;89.79;96091.73;110126;1242;69977;-61
2023/10/20 06:30:22;;;;;;;6.90;6.20;;;;;;;14.48;88.64;96086.67;110138;1241;59742;-61
2023/10/20 06:35:52;;;;;;;8.90;7.20;;;;;;;15.00;89.82;96076.58;110171;1242;69628;-60
2023/10/20 06:41:16;;;;;;;10.20;6.60;;;;;;;15.66;85.63;96076.25;110149;1242;68372;-61
2023/10/20 06:43:45;;;;;;;11.00;6.00;;;;;;;16.02;80.61;96086.98;110169;1241;59777;-61
2023/10/20 06:46:15;;;;;;;7.60;4.60;;;;;;;16.42;79.77;96083.84;110145;1241;59746;-61
2023/10/20 06:48:45;;;;;;;6.30;4.60;;;;;;;16.85;75.43;96083.83;110162;1242;71824;-60
2023/10/20 06:51:14;;;;;;;6.70;4.20;;;;;;;17.18;73.61;96087.00;110177;1242;69900;-61
2023/10/20 06:53:43;;;;;;;4.70;3.80;;;;;;;17.53;72.15;96102.08;110137;1242;69972;-61
2023/10/20 06:56:13;;;;;;;4.30;3.80;;;;;;;17.96;70.62;96113.29;110175;1240;59744;-61
2023/10/20 06:58:47;;;;;;;5.10;3.60;;;;;;;18.29;67.26;96118.42;110234;1240;59778;-61
2023/10/20 07:01:18;;;;;;;7.00;3.70;;;;;;;18.40;66.02;96122.38;110185;1244;71454;-61
2023/10/20 07:03:48;;;;;;;6.00;3.90;;;;;;;18.35;64.90;96119.41;110212;1242;69243;-60
2023/10/20 07:06:18;;;;;;;4.80;4.00;;;;;;;18.37;67.93;96120.72;110163;1242;69261;-62
2023/10/20 07:08:50;;;;;;;3.90;3.50;;;;;;;18.34;71.71;96115.83;110155;1240;59678;-60
2023/10/20 07:11:20;;;;;;;5.70;4.50;;;;;;;18.22;70.42;96112.64;110184;1240;59710;-60
2023/10/20 07:13:50;;;;;;;4.60;3.40;;;;;;;18.07;70.39;96116.61;110159;1242;71393;-60
2023/10/20 07:16:19;;;;;;;5.20;3.80;;;;;;;17.93;69.75;96114.73;110193;1242;69658;-61
2023/10/20 07:18:50;;;;;;;5.80;4.00;;;;;;;17.78;70.07;96110.14;110216;1242;70010;-61
2023/10/20 07:21:20;;;;;;;7.50;4.30;;;;;;;17.63;70.24;96112.71;110171;1243;59743;-61
2023/10/20 07:23:49;;;;;;;;;;;;;;;17.47;70.58;96114.46;110182;1242;60062;-61
2023/10/20 07:26:19;;;;;;;7.20;4.70;;;;;;;17.30;71.10;96117.22;110184;1242;71386;-60
2023/10/20 07:28:49;;;;;;;7.40;4.60;;;;;;;17.23;71.30;96116.81;110163;1242;69226;-60
2023/10/20 07:31:26;;;;;;;9.20;5.40;;;;;;;17.10;73.18;96122.91;110203;1242;68291;-60
2023/10/20 07:33:56;;;;;;;8.40;5.20;;;;;;;17.02;73.70;96118.86;110155;1240;59752;-59
2023/10/20 07:36:25;;;;;;;6.50;4.20;;;;;;;17.01;72.65;96116.05;110173;1241;59729;-59
2023/10/20 07:38:55;;;;;;;5.00;3.90;;;;;;;17.06;72.17;96116.77;110175;1245;70971;-61
2023/10/20 07:41:24;;;;;;;6.50;3.90;;;;;;;17.17;71.86;96118.23;110139;1240;69653;-61
2023/10/20 07:43:54;;;;;;;5.10;3.70;;;;;;;17.35;71.19;96115.05;110176;1243;69271;-62
2023/10/20 07:46:23;;;;;;;6.20;4.20;;;;;;;17.63;69.62;96113.38;110209;1243;59755;-61
2023/10/20 07:48:52;;;;;;;6.60;3.70;;;;;;;17.87;69.33;96115.27;110213;1242;59698;-62
2023/10/20 07:51:22;;;;;;;6.60;3.60;;;;;;;18.15;69.55;96119.17;110239;1240;71689;-61
2023/10/20 07:53:53;;;;;;;6.40;4.00;;;;;;;18.65;67.34;96119.44;110239;1240;69826;-59
2023/10/20 07:56:22;;;;;;;5.20;3.80;;;;;;;19.19;65.63;96116.11;110215;1243;68533;-61
2023/10/20 07:58:51;;;;;;;;;;;;;;;19.78;65.15;96111.89;110188;1240;59741;-61
2023/10/20 08:01:21;;;;;;;;;;;;;;;20.14;59.41;96114.22;110183;1240;59633;-59
2023/10/20 08:03:52;;;;;;;4.60;3.30;;;;;;;20.60;57.65;96113.42;110183;1240;70892;-58
2023/10/20 08:06:23;;;;;;;5.20;3.30;;;;;;;21.20;59.83;96114.65;110184;1240;69510;-61
2023/10/20 08:08:52;;;;;;;8.30;3.90;;;;;;;21.81;57.23;96121.80;110206;1241;69871;-60
2023/10/20 08:11:22;;;;;;;4.70;3.80;;;;;;;22.39;58.65;96127.84;110203;1240;59793;-60
2023/10/20 08:13:51;;;;;;;6.20;3.60;;;;;;;22.91;53.66;96125.73;110162;1240;59768;-60
2023/10/20 08:16:21;;;;;;;4.90;3.60;;;;;;;23.49;52.41;96119.21;110202;1242;71356;-60
2023/10/20 08:18:51;;;;;;;6.00;3.60;;;;;;;23.47;49.61;96122.39;110207;1243;68378;-61
2023/10/20 08:21:26;;;;;;;5.00;2.90;;;;;;;23.56;49.51;96121.74;110100;1242;68517;-60
2023/10/20 08:23:59;;;;;;;4.50;3.40;;;;;;;23.56;48.56;96120.45;110112;1243;59724;-61
2023/10/20 08:26:31;;;;;;;6.10;4.40;;;;;;;23.17;47.84;96121.35;110216;1242;59675;-61
2023/10/20 08:29:01;;;;;;;6.60;3.50;;;;;;;22.82;48.00;96123.80;110149;1242;72332;-60
2023/10/20 08:31:31;;;;;;;6.30;3.60;;;;;;;22.49;48.70;96122.08;110112;1242;69268;-60
2023/10/20 08:34:01;;;;;;;7.50;3.70;;;;;;;22.11;48.50;96111.25;110116;1242;69542;-59
2023/10/20 08:36:31;;;;;;;6.90;3.10;;;;;;;21.87;49.46;96104.84;110182;1240;60142;-59
2023/10/20 08:39:13;;;;;;;6.60;3.60;;;;;;;21.81;49.80;96107.30;110188;1243;59692;-60
2023/10/20 08:41:43;;;;;;;4.90;3.10;;;;;;;22.02;50.14;96110.16;110153;1242;71343;-59
2023/10/20 08:44:14;;;;;;;5.10;2.80;;;;;;;22.29;50.67;96111.42;110157;1244;69262;-59
2023/10/20 08:46:45;;;;;;;6.50;3.30;;;;;;;22.64;49.79;96115.48;110167;1241;69326;-59
2023/10/20 08:49:18;;;;;;;5.90;3.60;;;;;;;22.78;49.95;96108.77;110133;1240;59767;-59
2023/10/20 08:51:48;;;;;;;5.30;3.20;;;;;;;22.78;48.72;96108.30;110179;1243;59683;-61
2023/10/20 08:54:20;;;;;;;5.50;3.20;;;;;;;22.66;49.11;96107.55;110172;1242;71203;-59
2023/10/20 08:56:51;;;;;;;4.90;3.00;;;;;;;22.54;47.70;96108.61;110120;1240;68515;-59
2023/10/20 08:59:22;;;;;;;5.60;3.50;;;;;;;22.55;49.11;96110.11;110120;1240;69291;-58
2023/10/20 09:01:51;;;;;;;;;;;;;;;22.63;49.34;96112.33;110136;1242;59713;-59
2023/10/20 09:04:23;;;;;;;6.60;3.80;;;;;;;22.65;49.17;96114.57;110143;1244;59642;-59
2023/10/20 09:06:53;;;;;;;5.40;3.70;;;;;;;22.76;49.04;96117.51;110151;1244;70723;-59
2023/10/20 09:09:23;;;;;;;5.00;3.90;;;;;;;23.02;48.93;96119.58;110123;1244;69862;-59
2023/10/20 09:11:53;;;;;;;6.40;3.70;;;;;;;23.37;48.39;96116.77;110121;1240;69456;-58
2023/10/20 09:14:25;;;;;;;6.80;4.40;;;;;;;23.53;47.63;96115.99;110116;1242;59742;-60
2023/10/20 09:16:57;;;;;;;5.80;3.80;;;;;;;23.58;46.99;96119.14;110117;1244;59681;-58
2023/10/20 09:19:27;;;;;;;6.70;4.40;;;;;;;23.52;47.13;96115.64;109657;1241;579344;-59
2023/10/20 09:21:57;;;;;;;;;;;;;;;23.45;47.48;96116.45;110190;1240;69292;-59
2023/10/20 09:24:34;;;;;;;6.10;3.80;;;;;;;23.32;47.30;96114.23;110105;1241;69122;-58
2023/10/20 09:27:04;;;;;;;7.10;4.20;;;;;;;23.00;47.45;96115.34;110160;1242;59688;-58
2023/10/20 09:29:34;;;;;;;5.30;3.60;;;;;;;22.86;48.31;96116.15;110150;1243;59698;-58
2023/10/20 09:32:05;;;;;;;8.40;3.90;;;;;;;22.90;47.99;96114.15;110160;1240;71988;-58
2023/10/20 09:34:35;;;;;;;8.00;4.30;;;;;;;23.15;48.12;96111.93;110120;1242;69199;-59
2023/10/20 09:37:05;;;;;;;7.00;3.80;;;;;;;23.51;46.96;96111.32;110148;1242;69880;-59
2023/10/20 09:39:39;;;;;;;5.90;3.90;;;;;;;23.94;46.52;96110.67;110169;1241;59706;-59
2023/10/20 09:42:13;;;;;;;7.10;4.00;;;;;;;24.52;46.13;96108.52;110180;1242;59628;-59
2023/10/20 09:45:00;;;;;;;9.40;4.30;;;;;;;25.02;44.85;96106.95;110117;1240;71006;-60
2023/10/20 09:47:31;;;;;;;5.30;3.80;;;;;;;25.21;43.42;96108.92;110146;1240;69847;-59
2023/10/20 09:50:01;;;;;;;8.10;4.20;;;;;;;25.40;43.07;96112.86;110153;1240;69358;-59
2023/10/20 09:52:32;;;;;;;7.80;4.70;;;;;;;25.60;41.93;96111.91;110168;1242;59714;-59
2023/10/20 09:55:02;;;;;;;5.90;4.10;;;;;;;25.57;42.11;96100.98;110176;1240;59653;-59
2023/10/20 09:57:32;;;;;;;8.50;4.90;;;;;;;25.75;41.72;96093.64;110103;1242;71348;-59
2023/10/20 10:00:07;;;;;;;11.00;5.90;;;;;;;26.01;40.83;96086.85;110135;1244;69218;-61
2023/10/20 10:02:38;;;;;;;9.50;5.50;;;;;;;25.95;40.71;96089.74;110127;1240;69870;-59
2023/10/20 10:05:10;;;;;;;9.40;4.80;;;;;;;25.81;40.69;96087.08;110137;1240;59772;-61
2023/10/20 10:07:40;;;;;;;8.30;4.70;;;;;;;25.79;41.72;96079.14;110150;1240;59782;-61
2023/10/20 10:10:18;;;;;;;;;;;;;;;25.88;41.17;96079.07;110134;1246;71404;-61
2023/10/20 10:12:59;;;;;;;8.40;4.80;;;;;;;25.55;41.28;96077.61;110165;1242;68341;-59
2023/10/20 10:15:39;;;;;;;6.00;3.80;;;;;;;25.31;41.99;96081.98;110170;1240;69301;-60
2023/10/20 10:18:10;;;;;;;6.60;4.10;;;;;;;25.25;41.83;96083.70;110205;1242;59727;-60
2023/10/20 10:20:48;;;;;;;4.60;3.80;;;;;;;24.97;41.98;96084.33;110193;1240;59743;-62
2023/10/20 10:23:27;;;;;;;7.60;4.30;;;;;;;24.91;42.48;96085.23;110221;1242;71973;-60
2023/10/20 10:25:58;;;;;;;6.30;3.70;;;;;;;24.99;42.58;96077.52;110210;1242;68367;-59
2023/10/20 10:28:30;;;;;;;7.10;4.00;;;;;;;25.06;42.44;96068.99;110154;1242;68529;-61
2023/10/20 10:31:01;;;;;;;7.00;4.10;;;;;;;25.24;42.07;96070.38;110172;1242;60198;-61
2023/10/20 10:33:30;;;;;;;6.60;4.20;;;;;;;25.33;42.25;96072.38;110141;1242;60062;-59
2023/10/20 10:36:04;;;;;;;7.60;4.00;;;;;;;25.29;41.93;96074.86;110112;1242;71894;-60
2023/10/20 10:38:45;;;;;;;10.80;4.80;;;;;;;25.03;42.28;96074.64;110194;1240;68875;-59
2023/10/20 10:41:23;;;;;;;7.70;4.70;;;;;;;24.91;42.73;96074.09;110154;1242;68352;-59
2023/10/20 10:43:54;;;;;;;7.60;3.90;;;;;;;24.92;43.13;96072.62;110115;1240;59733;-59
2023/10/20 10:46:35;;;;;;;7.00;4.60;;;;;;;24.90;43.11;96068.51;110178;1242;59677;-59
2023/10/20 10:49:08;;;;;;;6.40;4.40;;;;;;;24.62;43.52;96063.98;110191;1240;72028;-62
2023/10/20 10:51:45;;;;;;;6.40;4.40;;;;;;;24.33;44.03;96059.34;110147;1249;69248;-61
2023/10/20 10:54:18;;;;;;;7.80;4.70;;;;;;;24.05;44.69;96053.89;110115;1242;69811;-60
2023/10/20 10:56:48;;;;;;;9.10;4.70;;;;;;;23.79;45.00;96057.82;110067;1243;59641;-59
2023/10/20 10:59:19;;;;;;;7.90;4.10;;;;;;;23.60;45.63;96052.04;110164;1241;59708;-61
2023/10/20 11:01:51;;;;;;;6.20;4.10;;;;;;;23.41;46.16;96047.56;110192;1244;71426;-59
2023/10/20 11:04:21;;;;;;;6.30;4.40;;;;;;;23.28;46.67;96053.66;110147;1242;68742;-60
2023/10/20 11:06:50;;;;;;;8.40;4.60;;;;;;;23.18;46.89;96051.40;110104;1240;68616;-58
2023/10/20 11:09:22;;;;;;;;;;;;;;;23.10;47.19;96048.85;110045;1244;59692;-59
2023/10/20 11:11:51;;;;;;;8.50;5.20;;;;;;;22.95;47.51;96038.53;110151;1240;59685;-58
2023/10/20 11:14:23;;;;;;;7.80;4.50;;;;;;;22.85;47.90;96037.38;110164;1240;72049;-59
2023/10/20 11:16:52;;;;;;;7.80;4.90;;;;;;;22.83;48.29;96042.23;110140;1243;67575;-58
2023/10/20 11:19:23;;;;;;;8.50;4.30;;;;;;;22.92;48.66;96035.46;110113;1242;69894;-59
2023/10/20 11:21:52;;;;;;;11.60;5.80;;;;;;;23.16;48.31;96029.71;110130;1242;59737;-59
2023/10/20 11:24:25;;;;;;;9.30;4.70;;;;;;;23.34;48.28;96029.73;110170;1242;59671;-59
2023/10/20 11:26:58;;;;;;;8.50;4.30;;;;;;;23.42;47.72;96026.14;110142;1242;71643;-59
2023/10/20 11:29:28;;;;;;;6.70;4.40;;;;;;;23.47;47.90;96028.52;110128;1240;69072;-60
2023/10/20 11:32:13;;;;;;;5.40;4.00;;;;;;;23.52;47.76;96026.73;110089;1242;69244;-59
2023/10/20 11:34:42;;;;;;;8.20;3.90;;;;;;;23.58;47.77;96031.05;110118;1243;59662;-58
2023/10/20 11:37:14;;;;;;;9.50;4.00;;;;;;;23.77;47.96;96032.58;110145;1243;59738;-59
2023/10/20 11:39:44;;;;;;;7.40;4.10;;;;;;;24.05;47.72;96034.20;110181;1240;72091;-60
2023/10/20 11:42:14;;;;;;;10.80;5.10;;;;;;;24.37;47.00;96035.58;110141;1244;69228;-60
2023/10/20 11:44:44;;;;;;;8.30;4.60;;;;;;;24.74;46.90;96031.27;110097;1240;69397;-59
2023/10/20 11:47:13;;;;;;;6.90;4.30;;;;;;;25.34;46.15;96031.30;110136;1242;59692;-60
2023/10/20 11:49:45;;;;;;;6.90;3.70;;;;;;;26.26;45.12;96036.61;110110;1240;59782;-59
2023/10/20 11:52:15;;;;;;;7.30;4.20;;;;;;;26.98;43.01;96025.33;110144;1243;71066;-59
2023/10/20 11:54:45;;;;;;;7.70;3.60;;;;;;;27.71;42.03;96020.67;110168;1242;69826;-60
2023/10/20 11:57:15;;;;;;;8.30;3.90;;;;;;;28.46;40.34;96016.73;110141;1241;69896;-61
2023/10/20 11:59:44;;;;;;;7.10;4.00;;;;;;;28.88;39.56;96017.16;110155;1242;59687;-60
2023/10/20 12:02:14;;;;;;;8.90;4.10;;;;;;;29.28;38.10;96018.86;110184;1242;59665;-60
2023/10/20 12:04:45;;;;;;;7.40;4.30;;;;;;;29.61;37.33;96022.59;110198;1242;71918;-60
2023/10/20 12:07:14;;;;;;;6.70;4.10;;;;;;;29.91;35.97;96020.83;110130;1241;69353;-61
2023/10/20 12:09:44;;;;;;;7.60;4.30;;;;;;;30.17;35.73;96023.88;110120;1240;70233;-60
2023/10/20 12:12:13;;;;;;;7.70;4.10;;;;;;;30.45;35.40;96026.95;110121;1241;59742;-59
2023/10/20 12:14:42;;;;;;;7.30;4.40;;;;;;;30.55;35.15;96027.47;110121;1240;59700;-60